Time;durP1;ratioP1;P1;durP2;ratioP2;P2;SDS_P1;SDS_P2;PMS_P1;PMS_P2;Temp;Humidity;BMP_temperature;BMP_pressure;BME280_temperature;BME280_humidity;BME280_pressure;Samples;Min_cycle;Max_cycle;Signal;HPM_P1;HPM_P2
2023/01/01 00:01:23;;;;;;;9.18;6.05;;;20.50;63.50;;;;;;5073441;28;20044;-61
2023/01/01 00:03:49;;;;;;;10.43;6.30;;;20.50;63.60;;;;;;5072868;28;20044;-61
2023/01/01 00:06:15;;;;;;;10.60;6.40;;;20.50;63.50;;;;;;5073567;28;20080;-61
2023/01/01 00:08:40;;;;;;;11.75;6.43;;;20.50;63.50;;;;;;5072662;28;20083;-61
2023/01/01 00:11:07;;;;;;;10.50;6.45;;;20.40;63.40;;;;;;5072121;28;20051;-61
2023/01/01 00:13:33;;;;;;;10.43;6.60;;;20.40;63.40;;;;;;5073154;28;20048;-61
2023/01/01 00:16:06;;;;;;;9.52;6.05;;;20.40;63.40;;;;;;5072932;28;20091;-61
2023/01/01 00:18:31;;;;;;;11.68;6.50;;;20.40;63.40;;;;;;5072375;28;20052;-61
2023/01/01 00:21:04;;;;;;;10.85;6.60;;;20.40;63.40;;;;;;5073569;28;20119;-61
2023/01/01 00:23:30;;;;;;;10.50;6.88;;;20.40;63.40;;;;;;5072350;28;20488;-61
2023/01/01 00:25:55;;;;;;;9.45;6.38;;;20.40;63.40;;;;;;5073086;28;20090;-61
2023/01/01 00:28:21;;;;;;;11.38;7.05;;;20.40;63.40;;;;;;5072640;28;20045;-61
2023/01/01 00:30:46;;;;;;;10.48;6.75;;;20.30;63.40;;;;;;5072572;28;20072;-61
2023/01/01 00:33:12;;;;;;;10.00;6.72;;;20.30;63.40;;;;;;5072628;28;20044;-61
2023/01/01 00:35:37;;;;;;;10.65;7.10;;;20.30;63.40;;;;;;5073059;28;20536;-61
2023/01/01 00:38:03;;;;;;;11.10;7.03;;;20.30;63.40;;;;;;5072431;28;20380;-61
2023/01/01 00:40:29;;;;;;;9.25;6.70;;;20.30;63.40;;;;;;5072583;28;20045;-61
2023/01/01 00:42:54;;;;;;;9.55;6.20;;;20.30;63.40;;;;;;5072325;28;20041;-61
2023/01/01 00:45:20;;;;;;;10.52;6.75;;;20.30;63.30;;;;;;5071692;28;20040;-61
2023/01/01 00:47:45;;;;;;;11.13;6.88;;;20.30;63.30;;;;;;5072720;28;20076;-61
2023/01/01 00:50:11;;;;;;;10.05;6.68;;;20.30;63.30;;;;;;5072575;28;20036;-61
2023/01/01 00:52:36;;;;;;;11.48;6.88;;;20.30;63.30;;;;;;5072203;28;20548;-61
2023/01/01 00:55:02;;;;;;;15.13;7.82;;;20.20;63.30;;;;;;5072692;28;20441;-61
2023/01/01 00:57:28;;;;;;;10.40;7.25;;;20.20;63.20;;;;;;5072060;28;21028;-61
2023/01/01 00:59:53;;;;;;;10.88;7.20;;;20.20;63.30;;;;;;5072119;28;20560;-60
2023/01/01 01:02:19;;;;;;;10.63;6.88;;;20.20;63.20;;;;;;5072296;28;20067;-61
2023/01/01 01:04:44;;;;;;;10.80;6.57;;;20.20;63.20;;;;;;5071764;28;20040;-61
2023/01/01 01:07:10;;;;;;;13.15;7.05;;;20.20;63.20;;;;;;5072151;28;20369;-61
2023/01/01 01:09:35;;;;;;;10.05;6.75;;;20.20;63.20;;;;;;5066297;28;20119;-61
2023/01/01 01:12:01;;;;;;;9.82;6.93;;;20.20;63.20;;;;;;5071327;28;20117;-61
2023/01/01 01:14:26;;;;;;;9.18;6.85;;;20.20;63.10;;;;;;5071835;28;20106;-61
2023/01/01 01:16:52;;;;;;;10.75;7.13;;;20.20;63.10;;;;;;5072591;28;20049;-61
2023/01/01 01:19:18;;;;;;;11.98;7.38;;;20.10;63.10;;;;;;5071110;28;20105;-61
2023/01/01 01:21:46;;;;;;;10.27;6.82;;;20.10;63.10;;;;;;5072399;28;20094;-61
2023/01/01 01:24:11;;;;;;;8.88;6.72;;;20.10;63.10;;;;;;5072014;28;20476;-61
2023/01/01 01:26:37;;;;;;;10.70;7.07;;;20.10;63.10;;;;;;5071645;28;20040;-61
2023/01/01 01:29:02;;;;;;;11.20;7.22;;;20.10;63.10;;;;;;5072100;28;20040;-61
2023/01/01 01:31:29;;;;;;;9.60;6.57;;;20.20;63.10;;;;;;5072126;28;20036;-61
2023/01/01 01:33:56;;;;;;;10.88;7.38;;;20.10;63.10;;;;;;5071607;28;20048;-61
2023/01/01 01:36:21;;;;;;;11.20;7.55;;;20.10;63.00;;;;;;5071832;28;20052;-61
2023/01/01 01:38:47;;;;;;;9.70;7.10;;;20.10;63.00;;;;;;5059882;28;20045;-61
2023/01/01 01:41:18;;;;;;;10.98;7.00;;;20.10;63.00;;;;;;5050840;28;20055;-61
2023/01/01 01:43:55;;;;;;;9.45;7.47;;;20.10;63.00;;;;;;5051840;28;20076;-61
2023/01/01 01:46:25;;;;;;;9.88;7.50;;;20.10;63.00;;;;;;5051374;28;20041;-61
2023/01/01 01:48:51;;;;;;;11.27;7.45;;;20.10;63.60;;;;;;5051296;28;20044;-61
2023/01/01 01:51:24;;;;;;;10.38;7.03;;;20.10;63.00;;;;;;5051961;28;20071;-61
2023/01/01 01:53:52;;;;;;;10.25;6.80;;;20.10;63.00;;;;;;5050329;28;20049;-61
2023/01/01 01:56:20;;;;;;;11.23;7.97;;;20.00;62.90;;;;;;5033098;28;20045;-61
2023/01/01 01:58:46;;;;;;;9.68;7.15;;;20.00;62.90;;;;;;5050831;28;20094;-61
2023/01/01 02:01:12;;;;;;;9.30;7.65;;;20.00;62.90;;;;;;5049613;28;20033;-61
2023/01/01 02:03:45;;;;;;;11.25;7.03;;;20.00;62.90;;;;;;5052082;28;20048;-61
2023/01/01 02:06:11;;;;;;;10.77;7.05;;;20.00;62.90;;;;;;5051256;28;20037;-61
2023/01/01 02:08:36;;;;;;;10.32;6.70;;;20.00;62.90;;;;;;5050923;28;20049;-61
2023/01/01 02:11:02;;;;;;;10.80;7.32;;;20.00;62.90;;;;;;5050751;28;20083;-61
2023/01/01 02:13:27;;;;;;;9.32;7.28;;;20.00;62.80;;;;;;5051493;28;20144;-61
2023/01/01 02:15:59;;;;;;;10.55;7.75;;;20.00;62.90;;;;;;5049949;28;20056;-61
2023/01/01 02:18:39;;;;;;;10.45;7.03;;;20.00;62.80;;;;;;5050307;28;20071;-61
2023/01/01 02:21:37;;;;;;;11.95;7.25;;;20.00;62.80;;;;;;5051943;28;20044;-61
2023/01/01 02:24:14;;;;;;;10.05;7.25;;;20.00;62.70;;;;;;5054935;28;20044;-61
2023/01/01 02:27:03;;;;;;;11.53;7.47;;;20.00;62.80;;;;;;5049375;28;20044;-61
2023/01/01 02:29:38;;;;;;;8.60;6.65;;;20.00;62.80;;;;;;5053271;28;20132;-61
2023/01/01 02:32:09;;;;;;;10.48;7.07;;;19.90;62.80;;;;;;5054486;28;20091;-61
2023/01/01 02:34:39;;;;;;;12.25;7.57;;;20.00;62.90;;;;;;5054389;28;20048;-61
2023/01/01 02:37:06;;;;;;;11.50;7.07;;;19.90;62.70;;;;;;5053479;28;20045;-61
2023/01/01 02:39:33;;;;;;;9.38;6.78;;;19.90;62.70;;;;;;5055101;28;20045;-60
2023/01/01 02:41:59;;;;;;;8.53;6.87;;;19.90;62.80;;;;;;5053766;28;20099;-61
2023/01/01 02:44:25;;;;;;;9.93;6.88;;;19.90;62.70;;;;;;5052868;28;20532;-61
2023/01/01 02:46:51;;;;;;;9.90;7.35;;;20.00;62.80;;;;;;5055631;28;20136;-61
2023/01/01 02:49:16;;;;;;;10.05;7.53;;;19.90;62.70;;;;;;5054941;28;20041;-61
2023/01/01 02:51:57;;;;;;;8.88;7.00;;;19.90;62.60;;;;;;5054618;28;20444;-61
2023/01/01 02:54:41;;;;;;;9.63;6.78;;;19.90;62.70;;;;;;5054261;28;20048;-61
2023/01/01 02:57:08;;;;;;;10.07;7.57;;;19.90;62.60;;;;;;5073344;28;20051;-61
2023/01/01 03:02:42;;;;;;;10.07;7.22;;;19.90;62.70;;;;;;5072167;28;20052;-61
2023/01/01 03:05:32;;;;;;;9.85;7.13;;;19.90;62.60;;;;;;5073468;28;20045;-61
2023/01/01 03:08:13;;;;;;;9.68;6.95;;;19.90;62.60;;;;;;5072532;28;20045;-61
2023/01/01 03:10:54;;;;;;;10.60;7.13;;;19.90;62.60;;;;;;5073640;28;20487;-61
2023/01/01 03:13:43;;;;;;;8.88;6.55;;;19.90;62.70;;;;;;5072956;28;20080;-61
2023/01/01 03:16:17;;;;;;;11.35;7.07;;;19.90;62.60;;;;;;5074556;28;20057;-61
2023/01/01 03:18:50;;;;;;;10.45;6.90;;;19.80;62.60;;;;;;5072837;28;20044;-61
2023/01/01 03:21:16;;;;;;;9.85;6.85;;;19.90;62.70;;;;;;5074378;28;20066;-61
2023/01/01 03:23:45;;;;;;;10.77;7.15;;;19.90;62.60;;;;;;5073132;28;20040;-61
2023/01/01 03:26:11;;;;;;;10.60;7.18;;;19.90;62.60;;;;;;5071922;28;20504;-61
2023/01/01 03:28:49;;;;;;;11.15;7.32;;;19.80;62.50;;;;;;5073056;28;20049;-61
2023/01/01 03:31:17;;;;;;;9.80;7.15;;;19.80;62.50;;;;;;5072988;28;20045;-61
2023/01/01 03:33:47;;;;;;;9.10;6.68;;;19.80;62.50;;;;;;5071234;28;20045;-61
2023/01/01 03:36:16;;;;;;;9.50;7.03;;;19.80;62.50;;;;;;5072747;28;20410;-61
2023/01/01 03:38:44;;;;;;;9.13;6.47;;;19.80;62.60;;;;;;5072887;28;20121;-60
2023/01/01 03:41:43;;;;;;;8.90;6.68;;;19.80;62.60;;;;;;5060533;28;20519;-61
2023/01/01 03:44:30;;;;;;;9.15;6.20;;;19.80;62.60;;;;;;5053069;28;20377;-60
2023/01/01 03:46:56;;;;;;;9.07;6.20;;;19.80;62.50;;;;;;5052702;28;20480;-61
2023/01/01 03:49:21;;;;;;;12.07;6.80;;;19.80;62.50;;;;;;5053630;28;20071;-61
2023/01/01 03:51:59;;;;;;;7.72;6.25;;;19.80;62.50;;;;;;5053993;28;20045;-61
2023/01/01 03:54:33;;;;;;;9.50;6.55;;;19.80;62.50;;;;;;5051296;28;20116;-61
2023/01/01 03:57:14;;;;;;;10.93;6.90;;;19.80;62.50;;;;;;5053956;28;20053;-61
2023/01/01 03:59:43;;;;;;;9.75;6.40;;;19.80;62.50;;;;;;5052681;28;20043;-61
2023/01/01 04:02:09;;;;;;;8.75;6.47;;;19.80;62.50;;;;;;5051647;28;20516;-61
2023/01/01 04:04:35;;;;;;;10.35;6.80;;;19.80;62.60;;;;;;5053394;28;20127;-61
2023/01/01 04:07:00;;;;;;;8.25;6.30;;;19.80;63.10;;;;;;5052535;28;20132;-61
2023/01/01 04:09:30;;;;;;;8.40;6.32;;;19.80;62.50;;;;;;5051504;28;20080;-62
2023/01/01 04:12:05;;;;;;;8.20;6.13;;;19.80;62.50;;;;;;5053548;28;20090;-62
2023/01/01 04:14:33;;;;;;;8.07;5.80;;;19.80;62.50;;;;;;5051337;28;20068;-61
2023/01/01 04:16:59;;;;;;;8.20;6.15;;;19.80;62.50;;;;;;5053226;28;20091;-60
2023/01/01 04:19:24;;;;;;;7.88;5.07;;;19.80;62.30;;;;;;5067073;28;20071;-61
2023/01/01 04:21:50;;;;;;;8.30;5.80;;;19.80;62.40;;;;;;5072757;28;20036;-61
2023/01/01 04:24:16;;;;;;;8.55;5.53;;;19.80;62.30;;;;;;5072844;28;20048;-61
2023/01/01 04:26:41;;;;;;;8.32;5.43;;;19.80;62.30;;;;;;5073285;28;20044;-61
2023/01/01 04:29:07;;;;;;;8.13;5.70;;;19.80;62.30;;;;;;5072887;28;20107;-61
2023/01/01 04:31:33;;;;;;;8.38;5.95;;;19.90;62.30;;;;;;5072976;28;20044;-61
2023/01/01 04:33:59;;;;;;;8.05;5.22;;;19.90;62.30;;;;;;5073400;28;20043;-61
2023/01/01 04:36:24;;;;;;;8.68;5.35;;;19.90;62.30;;;;;;5071782;28;20044;-61
2023/01/01 04:38:50;;;;;;;9.45;5.80;;;19.90;62.30;;;;;;5073233;28;20041;-61
2023/01/01 04:41:16;;;;;;;8.27;5.80;;;19.90;62.30;;;;;;5072689;28;20106;-60
2023/01/01 04:43:43;;;;;;;8.77;5.38;;;19.90;62.30;;;;;;5072048;28;20178;-60
2023/01/01 04:46:08;;;;;;;7.32;5.10;;;19.90;62.30;;;;;;5071501;28;20047;-61
2023/01/01 04:48:34;;;;;;;7.47;5.22;;;19.90;62.20;;;;;;5071404;28;20037;-61
2023/01/01 04:51:03;;;;;;;8.75;5.45;;;19.90;62.20;;;;;;5071985;28;20123;-61
2023/01/01 04:53:31;;;;;;;7.80;5.10;;;19.90;62.20;;;;;;5072730;28;20064;-61
2023/01/01 04:56:07;;;;;;;8.88;5.07;;;19.90;62.20;;;;;;5072794;28;20074;-61
2023/01/01 04:58:33;;;;;;;6.50;4.82;;;20.00;62.20;;;;;;5070508;28;20052;-61
2023/01/01 05:00:58;;;;;;;6.63;4.53;;;19.90;62.10;;;;;;5070335;28;20123;-61
2023/01/01 05:03:24;;;;;;;7.15;5.07;;;19.90;62.10;;;;;;5051511;28;20144;-61
2023/01/01 05:06:03;;;;;;;7.65;4.78;;;19.90;62.10;;;;;;5051138;28;20048;-61
2023/01/01 05:08:29;;;;;;;7.30;4.93;;;19.90;62.00;;;;;;5051534;28;20079;-61
2023/01/01 05:11:02;;;;;;;7.00;4.20;;;19.90;62.00;;;;;;5051475;28;20477;-61
2023/01/01 05:13:28;;;;;;;6.68;4.40;;;19.90;62.00;;;;;;5052081;28;20485;-61
2023/01/01 05:15:54;;;;;;;8.07;4.57;;;19.90;62.00;;;;;;5047260;28;20132;-61
2023/01/01 05:18:19;;;;;;;6.68;4.40;;;19.90;62.00;;;;;;5051284;28;20037;-61
2023/01/01 05:20:45;;;;;;;6.85;4.65;;;19.90;62.00;;;;;;5052701;28;20059;-61
2023/01/01 05:23:10;;;;;;;8.45;4.70;;;19.90;62.00;;;;;;5052032;28;20139;-61
2023/01/01 05:25:36;;;;;;;6.28;4.18;;;19.90;62.00;;;;;;5051098;28;20044;-61
2023/01/01 05:28:01;;;;;;;7.43;4.80;;;19.90;62.00;;;;;;5052386;28;20041;-61
2023/01/01 05:30:27;;;;;;;6.30;4.40;;;20.00;62.00;;;;;;5051874;28;20087;-61
2023/01/01 05:32:52;;;;;;;6.22;4.45;;;19.90;61.90;;;;;;5051112;28;20048;-60
2023/01/01 05:35:18;;;;;;;7.30;4.18;;;19.90;62.00;;;;;;5050941;28;20048;-61
2023/01/01 05:37:43;;;;;;;7.25;4.20;;;19.90;61.90;;;;;;5052316;28;20392;-61
2023/01/01 05:40:10;;;;;;;6.43;4.40;;;20.00;62.00;;;;;;5050992;28;20041;-61
2023/01/01 05:42:35;;;;;;;7.43;4.72;;;19.90;61.90;;;;;;5051987;28;20481;-61
2023/01/01 05:45:01;;;;;;;6.85;3.67;;;20.00;62.00;;;;;;5052073;28;20052;-61
2023/01/01 05:47:27;;;;;;;6.07;4.20;;;19.90;61.90;;;;;;5050915;28;20045;-61
2023/01/01 05:49:53;;;;;;;5.93;3.88;;;19.90;61.90;;;;;;5052207;28;20052;-61
2023/01/01 05:52:18;;;;;;;5.78;4.00;;;19.90;61.90;;;;;;5051262;28;20040;-62
2023/01/01 05:54:44;;;;;;;5.40;3.55;;;19.90;61.90;;;;;;5051635;28;20120;-61
2023/01/01 05:57:09;;;;;;;6.90;4.07;;;19.90;61.90;;;;;;5055314;28;20485;-61
2023/01/01 05:59:35;;;;;;;6.47;3.72;;;19.90;61.90;;;;;;5055021;28;20423;-61
2023/01/01 06:02:01;;;;;;;5.78;3.70;;;19.90;61.80;;;;;;5055349;28;20080;-61
2023/01/01 06:04:26;;;;;;;7.03;4.28;;;19.90;61.80;;;;;;5054386;28;20049;-61
2023/01/01 06:06:52;;;;;;;7.70;3.90;;;19.90;61.80;;;;;;5055867;28;20124;-61
2023/01/01 06:09:17;;;;;;;7.03;3.78;;;19.90;61.80;;;;;;5055284;28;20068;-61
2023/01/01 06:11:43;;;;;;;6.70;4.10;;;19.90;61.80;;;;;;5055951;28;20393;-61
2023/01/01 06:14:08;;;;;;;6.55;3.78;;;19.90;61.70;;;;;;5055330;28;20098;-61
2023/01/01 06:16:34;;;;;;;5.28;3.33;;;19.90;61.70;;;;;;5055224;28;20111;-61
2023/01/01 06:18:59;;;;;;;7.07;3.60;;;19.90;61.70;;;;;;5055923;28;20114;-61
2023/01/01 06:21:26;;;;;;;6.18;3.60;;;20.00;61.70;;;;;;5054633;28;20049;-61
2023/01/01 06:23:51;;;;;;;5.15;3.63;;;19.90;61.70;;;;;;5055456;28;20040;-61
2023/01/01 06:26:25;;;;;;;5.65;3.90;;;19.90;61.70;;;;;;5055251;28;20041;-61
2023/01/01 06:28:51;;;;;;;6.32;3.10;;;19.90;61.70;;;;;;5054625;28;20076;-62
2023/01/01 06:31:18;;;;;;;5.88;3.50;;;19.90;61.70;;;;;;5055045;28;20076;-61
2023/01/01 06:33:43;;;;;;;5.20;3.08;;;19.90;61.70;;;;;;5055783;28;20041;-62
2023/01/01 06:36:10;;;;;;;5.85;3.38;;;19.90;61.70;;;;;;5049192;28;20079;-61
2023/01/01 06:38:37;;;;;;;5.93;2.90;;;19.90;61.70;;;;;;5055084;28;20080;-61
2023/01/01 06:41:07;;;;;;;5.68;3.30;;;19.90;61.60;;;;;;5055378;28;20090;-61
2023/01/01 06:43:33;;;;;;;5.03;2.80;;;19.90;61.60;;;;;;5054127;28;20049;-61
2023/01/01 06:46:17;;;;;;;5.53;3.25;;;19.90;61.60;;;;;;5055546;28;20045;-61
2023/01/01 06:48:43;;;;;;;5.63;2.97;;;19.90;61.60;;;;;;5054859;28;20476;-61
2023/01/01 06:51:14;;;;;;;5.47;3.20;;;19.90;61.60;;;;;;5053353;28;20099;-61
2023/01/01 06:53:39;;;;;;;6.03;3.10;;;19.90;61.60;;;;;;5055233;28;20066;-61
2023/01/01 06:56:05;;;;;;;4.85;2.60;;;20.00;61.60;;;;;;5068827;28;20436;-61
2023/01/01 06:58:31;;;;;;;5.85;3.00;;;19.90;61.50;;;;;;5073984;28;20049;-61
2023/01/01 07:01:17;;;;;;;4.22;3.05;;;20.00;61.60;;;;;;5075107;28;20079;-61
2023/01/01 07:03:42;;;;;;;4.32;2.53;;;20.00;61.50;;;;;;5074242;28;20135;-61
2023/01/01 07:06:08;;;;;;;4.20;2.50;;;20.00;61.60;;;;;;5074906;28;20543;-61
2023/01/01 07:08:34;;;;;;;3.75;2.60;;;20.00;61.50;;;;;;5074355;28;20059;-61
2023/01/01 07:10:59;;;;;;;5.20;2.70;;;20.00;61.50;;;;;;5074305;28;20044;-61
2023/01/01 07:13:26;;;;;;;4.20;2.47;;;20.00;61.50;;;;;;5074295;28;20119;-62
2023/01/01 07:15:52;;;;;;;4.85;2.80;;;20.00;61.50;;;;;;5074498;28;20377;-61
2023/01/01 07:18:18;;;;;;;4.75;2.63;;;20.00;61.50;;;;;;5073648;28;20044;-61
2023/01/01 07:20:57;;;;;;;4.35;2.72;;;20.00;61.50;;;;;;5074829;28;20052;-61
2023/01/01 07:23:23;;;;;;;4.68;2.83;;;20.00;61.50;;;;;;5072881;28;20043;-61
2023/01/01 07:25:49;;;;;;;3.90;2.40;;;20.00;61.40;;;;;;5074144;28;20044;-61
2023/01/01 07:28:14;;;;;;;4.35;2.33;;;20.00;61.40;;;;;;5073966;28;20055;-61
2023/01/01 07:30:40;;;;;;;4.55;2.63;;;20.00;61.40;;;;;;5074347;28;20131;-61
2023/01/01 07:33:09;;;;;;;4.82;2.58;;;20.10;61.50;;;;;;5073837;28;20040;-61
2023/01/01 07:35:34;;;;;;;4.05;2.53;;;20.00;61.40;;;;;;5073166;28;20069;-61
2023/01/01 07:38:00;;;;;;;3.42;2.05;;;20.10;61.40;;;;;;5074236;28;20141;-61
2023/01/01 07:40:25;;;;;;;4.00;2.15;;;20.10;61.40;;;;;;5073502;28;20041;-61
2023/01/01 07:42:51;;;;;;;4.03;2.42;;;20.10;61.40;;;;;;5068967;28;20048;-61
2023/01/01 07:45:16;;;;;;;5.45;2.42;;;20.10;61.40;;;;;;5073696;28;20114;-60
2023/01/01 07:47:42;;;;;;;2.90;1.92;;;20.10;61.40;;;;;;5073575;28;20052;-60
2023/01/01 07:50:15;;;;;;;4.07;1.98;;;20.10;61.40;;;;;;5072589;28;20047;-62
2023/01/01 07:52:41;;;;;;;6.35;2.70;;;20.10;61.40;;;;;;5072404;28;20098;-60
2023/01/01 07:55:10;;;;;;;5.13;1.98;;;20.10;61.40;;;;;;5074026;28;20490;-59
2023/01/01 07:57:36;;;;;;;5.95;2.50;;;20.10;61.40;;;;;;5074334;28;20043;-60
2023/01/01 08:00:01;;;;;;;5.75;2.10;;;20.20;61.30;;;;;;5073650;28;20040;-59
2023/01/01 08:02:27;;;;;;;7.47;2.33;;;20.20;61.20;;;;;;5073938;28;20032;-59
2023/01/01 08:04:52;;;;;;;5.05;2.10;;;20.20;61.10;;;;;;5073792;28;20135;-59
2023/01/01 08:07:18;;;;;;;5.28;2.10;;;20.30;61.10;;;;;;5073230;28;20068;-59
2023/01/01 08:09:43;;;;;;;3.08;1.80;;;20.30;61.10;;;;;;5074392;28;20041;-59
2023/01/01 08:12:09;;;;;;;4.38;2.10;;;20.30;61.00;;;;;;5073803;28;20049;-60
2023/01/01 08:14:34;;;;;;;3.33;1.80;;;20.30;60.90;;;;;;5058979;28;20053;-60
2023/01/01 08:17:00;;;;;;;5.25;2.10;;;20.40;60.90;;;;;;5053533;28;20098;-59
2023/01/01 08:19:25;;;;;;;3.08;1.73;;;20.40;60.80;;;;;;5052531;28;20044;-59
2023/01/01 08:21:51;;;;;;;5.10;2.10;;;20.40;60.80;;;;;;5052934;28;20045;-59
2023/01/01 08:24:16;;;;;;;6.45;1.88;;;20.40;60.70;;;;;;5053312;28;20102;-59
2023/01/01 08:26:42;;;;;;;3.35;1.63;;;20.40;60.60;;;;;;5053671;28;20175;-59
2023/01/01 08:29:08;;;;;;;4.68;2.22;;;20.40;60.60;;;;;;5047866;28;20065;-59
2023/01/01 08:31:34;;;;;;;5.40;1.83;;;20.40;60.70;;;;;;5042638;28;20040;-59
2023/01/01 08:34:00;;;;;;;6.22;2.00;;;20.50;60.80;;;;;;5052281;28;20049;-58
2023/01/01 08:36:25;;;;;;;3.80;1.60;;;20.50;60.90;;;;;;5051915;28;20037;-58
2023/01/01 08:38:51;;;;;;;3.92;1.60;;;20.50;60.90;;;;;;5052648;28;20135;-59
2023/01/01 08:41:16;;;;;;;4.72;1.98;;;20.50;60.90;;;;;;5051496;28;20045;-58
2023/01/01 08:43:42;;;;;;;5.85;2.08;;;20.50;60.90;;;;;;5051945;28;20046;-59
2023/01/01 08:46:07;;;;;;;5.05;2.10;;;20.50;61.00;;;;;;5052416;28;20051;-59
2023/01/01 08:48:33;;;;;;;4.30;2.00;;;20.50;61.00;;;;;;5051743;28;20068;-58
2023/01/01 08:50:59;;;;;;;5.90;1.80;;;20.50;61.10;;;;;;5051450;28;20033;-58
2023/01/01 08:53:25;;;;;;;3.65;1.60;;;20.60;61.20;;;;;;5052470;28;20043;-59
2023/01/01 08:56:05;;;;;;;3.63;1.80;;;20.60;61.30;;;;;;5047134;28;20489;-58
2023/01/01 08:58:31;;;;;;;4.25;1.70;;;20.60;61.30;;;;;;5052782;28;20110;-57
2023/01/01 09:00:58;;;;;;;3.95;1.60;;;20.60;61.20;;;;;;5051178;28;20424;-58
2023/01/01 09:03:24;;;;;;;3.08;1.58;;;20.60;61.20;;;;;;5051638;28;20069;-58
2023/01/01 09:05:49;;;;;;;4.07;1.73;;;20.60;61.30;;;;;;5051287;28;20099;-58
2023/01/01 09:08:15;;;;;;;4.00;2.08;;;20.60;61.30;;;;;;5051975;28;20576;-58
2023/01/01 09:10:42;;;;;;;2.75;1.52;;;20.60;61.30;;;;;;5051976;28;20041;-58
2023/01/01 09:13:12;;;;;;;6.87;1.90;;;20.60;61.30;;;;;;5052513;28;20052;-58
2023/01/01 09:15:37;;;;;;;3.55;1.70;;;20.60;61.30;;;;;;5050961;28;20064;-57
2023/01/01 09:18:03;;;;;;;4.60;1.88;;;20.70;61.40;;;;;;5051615;28;20049;-58
2023/01/01 09:20:29;;;;;;;3.08;1.65;;;20.70;61.40;;;;;;5051454;28;20124;-58
2023/01/01 09:22:54;;;;;;;4.38;1.70;;;20.70;61.40;;;;;;5050552;28;20055;-57
2023/01/01 09:25:20;;;;;;;3.58;1.60;;;20.70;61.50;;;;;;5050990;28;20131;-58
2023/01/01 09:27:45;;;;;;;4.88;1.80;;;20.70;61.50;;;;;;5052571;28;20045;-58
2023/01/01 09:30:11;;;;;;;3.45;1.35;;;20.70;61.50;;;;;;5050685;28;20076;-58
2023/01/01 09:32:37;;;;;;;4.90;1.63;;;20.70;61.50;;;;;;5051354;28;20508;-59
2023/01/01 09:35:03;;;;;;;4.78;1.52;;;20.70;61.50;;;;;;5036812;28;20041;-59
2023/01/01 09:37:30;;;;;;;2.47;1.20;;;20.70;61.40;;;;;;5051322;28;20047;-59
2023/01/01 09:39:55;;;;;;;3.72;1.33;;;20.70;61.40;;;;;;5051296;28;20072;-59
2023/01/01 09:42:41;;;;;;;6.47;1.73;;;20.70;61.30;;;;;;5051771;28;20393;-59
2023/01/01 09:45:22;;;;;;;2.75;1.40;;;20.70;61.30;;;;;;5051046;28;20041;-59
2023/01/01 09:47:56;;;;;;;4.88;1.80;;;20.70;61.20;;;;;;5050504;28;20693;-59
2023/01/01 09:50:42;;;;;;;5.97;1.58;;;20.70;61.10;;;;;;5050257;28;20055;-59
2023/01/01 09:53:31;;;;;;;4.55;1.48;;;20.70;61.10;;;;;;5051462;28;20049;-58
2023/01/01 09:56:01;;;;;;;3.15;1.15;;;20.70;61.10;;;;;;5051273;28;20059;-59
2023/01/01 09:58:29;;;;;;;5.45;1.30;;;20.70;61.00;;;;;;5050300;28;20531;-59
2023/01/01 10:00:57;;;;;;;3.60;1.20;;;20.70;61.00;;;;;;5050500;28;20037;-59
2023/01/01 10:03:29;;;;;;;2.42;1.23;;;20.70;61.00;;;;;;5050427;28;20564;-59
2023/01/01 10:06:01;;;;;;;3.72;1.67;;;20.70;60.90;;;;;;5051842;28;20041;-59
2023/01/01 10:08:26;;;;;;;2.50;1.20;;;20.70;60.90;;;;;;5051188;28;20048;-59
2023/01/01 10:11:09;;;;;;;3.72;1.42;;;20.70;60.90;;;;;;5052180;28;20045;-58
2023/01/01 10:13:42;;;;;;;3.45;1.00;;;20.70;60.90;;;;;;5051131;28;20041;-59
2023/01/01 10:16:30;;;;;;;5.82;1.17;;;20.70;60.80;;;;;;5051820;28;20135;-59
2023/01/01 10:18:57;;;;;;;2.72;1.20;;;20.70;60.80;;;;;;5044959;28;20567;-59
2023/01/01 10:21:35;;;;;;;4.10;1.40;;;20.70;60.90;;;;;;5049587;28;20041;-59
2023/01/01 10:24:10;;;;;;;6.75;1.55;;;20.70;60.90;;;;;;5050273;28;20049;-60
2023/01/01 10:26:36;;;;;;;6.95;1.15;;;20.70;61.00;;;;;;5050438;28;20060;-60
2023/01/01 10:29:08;;;;;;;7.88;1.30;;;20.60;60.90;;;;;;5049537;28;20408;-60
2023/01/01 10:31:33;;;;;;;5.40;1.20;;;20.60;61.20;;;;;;5052891;28;20120;-59
2023/01/01 10:34:20;;;;;;;3.38;1.23;;;20.60;61.30;;;;;;5051860;28;20114;-59
2023/01/01 10:36:46;;;;;;;3.65;1.45;;;20.60;61.30;;;;;;5050606;28;20144;-59
2023/01/01 10:39:15;;;;;;;6.72;1.45;;;20.60;61.30;;;;;;5051153;28;20127;-61
2023/01/01 10:41:41;;;;;;;5.70;1.10;;;20.60;61.30;;;;;;5050294;28;20055;-59
2023/01/01 10:44:06;;;;;;;4.47;1.23;;;20.60;61.40;;;;;;5055118;28;20037;-58
2023/01/01 10:46:32;;;;;;;4.25;1.27;;;20.50;61.40;;;;;;5053822;28;20085;-58
2023/01/01 10:49:09;;;;;;;4.88;1.23;;;20.60;61.40;;;;;;5036736;28;20391;-58
2023/01/01 10:51:43;;;;;;;2.80;1.13;;;20.50;61.40;;;;;;5053429;28;20053;-58
2023/01/01 10:54:27;;;;;;;10.18;1.52;;;20.50;61.50;;;;;;5053567;28;20055;-59
2023/01/01 10:56:53;;;;;;;2.45;0.90;;;20.50;61.60;;;;;;5054353;28;20045;-59
2023/01/01 10:59:31;;;;;;;6.43;1.10;;;20.50;61.60;;;;;;5053440;28;20095;-58
2023/01/01 11:02:23;;;;;;;5.72;1.42;;;20.50;61.70;;;;;;5054540;28;20526;-59
2023/01/01 11:04:49;;;;;;;5.50;1.40;;;20.50;61.60;;;;;;5054164;28;20455;-59
2023/01/01 11:07:27;;;;;;;9.32;1.45;;;20.50;61.70;;;;;;5054269;28;20041;-58
2023/01/01 11:09:56;;;;;;;6.10;1.15;;;20.40;61.60;;;;;;5051005;28;20487;-58
2023/01/01 11:12:23;;;;;;;4.28;1.08;;;20.40;61.60;;;;;;5052796;28;20037;-58
2023/01/01 11:14:56;;;;;;;4.93;1.27;;;20.40;61.60;;;;;;5052524;28;20119;-59
2023/01/01 11:17:26;;;;;;;4.00;1.02;;;20.40;61.70;;;;;;5052259;28;20508;-59
2023/01/01 11:19:52;;;;;;;4.78;0.90;;;20.40;61.70;;;;;;5054061;28;20484;-59
2023/01/01 11:22:42;;;;;;;3.83;0.90;;;20.40;61.70;;;;;;5052557;28;20041;-58
2023/01/01 11:25:28;;;;;;;5.22;1.05;;;20.40;61.70;;;;;;5042477;28;20055;-58
2023/01/01 11:28:21;;;;;;;2.90;0.95;;;20.40;61.50;;;;;;5058891;28;20052;-58
2023/01/01 11:31:09;;;;;;;4.03;1.02;;;20.40;61.60;;;;;;5045912;28;20543;-58
2023/01/01 11:33:46;;;;;;;4.38;1.27;;;20.40;61.60;;;;;;5054176;28;20049;-58
2023/01/01 11:36:21;;;;;;;7.82;1.10;;;20.40;61.60;;;;;;5052647;28;20507;-58
2023/01/01 11:38:49;;;;;;;3.17;0.80;;;20.40;61.60;;;;;;5036806;28;20045;-58
2023/01/01 11:41:14;;;;;;;4.07;1.10;;;20.40;61.60;;;;;;5053762;28;20057;-58
2023/01/01 11:43:43;;;;;;;2.88;0.85;;;20.40;61.60;;;;;;5053516;28;20312;-58
2023/01/01 11:46:10;;;;;;;6.50;0.90;;;20.40;61.50;;;;;;5053300;28;20546;-58
2023/01/01 11:48:38;;;;;;;2.03;0.73;;;20.40;61.50;;;;;;5036205;28;20084;-59
2023/01/01 11:51:06;;;;;;;5.60;1.00;;;20.40;61.50;;;;;;5035168;28;20041;-58
2023/01/01 11:53:41;;;;;;;3.05;0.70;;;20.40;61.40;;;;;;5052530;28;20086;-59
2023/01/01 11:56:16;;;;;;;5.18;1.30;;;20.40;61.30;;;;;;5053739;28;20079;-60
2023/01/01 11:58:49;;;;;;;4.07;0.88;;;20.30;61.20;;;;;;5053399;28;20041;-60
2023/01/01 12:01:26;;;;;;;4.25;0.80;;;20.40;61.20;;;;;;5052478;28;20488;-60
2023/01/01 12:03:51;;;;;;;5.93;0.90;;;20.40;61.30;;;;;;5053289;28;20041;-59
2023/01/01 12:06:22;;;;;;;5.15;0.90;;;20.30;61.20;;;;;;5053191;28;20047;-60
2023/01/01 12:08:54;;;;;;;3.33;1.00;;;20.30;61.20;;;;;;5052838;28;20087;-60
2023/01/01 12:11:30;;;;;;;8.27;1.17;;;20.30;61.10;;;;;;5036243;28;20857;-60
2023/01/01 12:14:04;;;;;;;5.53;1.20;;;20.30;61.20;;;;;;5052382;28;20049;-61
2023/01/01 12:16:49;;;;;;;8.10;1.15;;;20.30;61.10;;;;;;5036578;28;20079;-60
2023/01/01 12:19:27;;;;;;;7.57;1.23;;;20.30;61.10;;;;;;5050399;28;20044;-60
2023/01/01 12:21:53;;;;;;;;;;;20.30;61.10;;;;;;5050590;28;20048;-62
2023/01/01 12:24:19;;;;;;;6.22;0.85;;;20.30;61.10;;;;;;5051479;28;19920;-68
2023/01/01 12:27:19;;;;;;;8.82;1.30;;;20.30;61.10;;;;;;5051714;28;20037;-64
2023/01/01 12:30:12;;;;;;;9.88;1.67;;;20.30;61.10;;;;;;5038149;28;20057;-63
2023/01/01 12:32:47;;;;;;;11.18;1.70;;;20.30;61.30;;;;;;5039345;28;20087;-75
2023/01/01 12:35:29;;;;;;;10.52;1.83;;;20.30;61.30;;;;;;5035254;28;20052;-65
2023/01/01 12:38:14;;;;;;;11.65;2.00;;;20.40;61.60;;;;;;5031408;28;20386;-65
2023/01/01 12:40:54;;;;;;;6.95;2.13;;;20.40;61.50;;;;;;5039205;28;20049;-65
2023/01/01 12:43:33;;;;;;;10.32;2.55;;;20.40;61.40;;;;;;5050945;28;20045;-64
2023/01/01 12:46:14;;;;;;;11.60;2.65;;;20.40;61.30;;;;;;5052829;28;20040;-63
2023/01/01 12:48:46;;;;;;;11.15;1.98;;;20.40;61.30;;;;;;5050952;28;20481;-61
2023/01/01 12:51:27;;;;;;;15.43;2.45;;;20.40;61.30;;;;;;5052250;28;20049;-63
2023/01/01 12:54:31;;;;;;;11.98;2.17;;;20.40;61.30;;;;;;5048574;28;20068;-62
2023/01/01 12:57:24;;;;;;;12.15;2.03;;;20.40;61.30;;;;;;5038626;28;20048;-61
2023/01/01 12:59:49;;;;;;;6.40;1.95;;;20.40;61.20;;;;;;5038563;28;20052;-64
2023/01/01 13:02:21;;;;;;;13.52;2.35;;;20.50;61.20;;;;;;5050125;28;20395;-60